sensor_id;sensor_type;location;lat;lon;timestamp;P1;durP1;ratioP1;P2;durP2;ratioP2
68614;SDS011;55593;51.994;5.882;2024-01-30T00:01:36;17.83;;;13.52;;
68614;SDS011;55593;51.994;5.882;2024-01-30T00:04:05;21.88;;;13.45;;
68614;SDS011;55593;51.994;5.882;2024-01-30T00:06:34;21.92;;;14.05;;
68614;SDS011;55593;51.994;5.882;2024-01-30T00:09:03;23.05;;;14.68;;
68614;SDS011;55593;51.994;5.882;2024-01-30T00:11:34;22.38;;;14.57;;
68614;SDS011;55593;51.994;5.882;2024-01-30T00:14:04;20.35;;;15.50;;
68614;SDS011;55593;51.994;5.882;2024-01-30T00:16:35;19.15;;;13.57;;
68614;SDS011;55593;51.994;5.882;2024-01-30T00:19:05;19.13;;;13.98;;
68614;SDS011;55593;51.994;5.882;2024-01-30T00:21:34;21.83;;;14.50;;
68614;SDS011;55593;51.994;5.882;2024-01-30T00:24:03;21.80;;;13.75;;
68614;SDS011;55593;51.994;5.882;2024-01-30T00:26:33;18.52;;;13.63;;
68614;SDS011;55593;51.994;5.882;2024-01-30T00:29:02;17.90;;;13.60;;
68614;SDS011;55593;51.994;5.882;2024-01-30T00:31:34;19.10;;;13.80;;
68614;SDS011;55593;51.994;5.882;2024-01-30T00:34:04;18.42;;;14.18;;
68614;SDS011;55593;51.994;5.882;2024-01-30T00:36:33;20.85;;;14.02;;
68614;SDS011;55593;51.994;5.882;2024-01-30T00:39:02;18.85;;;14.35;;
68614;SDS011;55593;51.994;5.882;2024-01-30T00:41:34;19.10;;;13.63;;
68614;SDS011;55593;51.994;5.882;2024-01-30T00:44:04;17.98;;;13.75;;
68614;SDS011;55593;51.994;5.882;2024-01-30T00:46:35;19.02;;;12.77;;
68614;SDS011;55593;51.994;5.882;2024-01-30T00:49:05;16.50;;;12.60;;
68614;SDS011;55593;51.994;5.882;2024-01-30T00:51:34;17.88;;;13.48;;
68614;SDS011;55593;51.994;5.882;2024-01-30T00:54:03;23.20;;;14.55;;
68614;SDS011;55593;51.994;5.882;2024-01-30T00:56:32;19.17;;;12.93;;
68614;SDS011;55593;51.994;5.882;2024-01-30T00:59:01;18.60;;;13.25;;
68614;SDS011;55593;51.994;5.882;2024-01-30T01:01:31;19.05;;;14.13;;
68614;SDS011;55593;51.994;5.882;2024-01-30T01:04:02;21.33;;;14.68;;
68614;SDS011;55593;51.994;5.882;2024-01-30T01:06:33;16.80;;;13.07;;
68614;SDS011;55593;51.994;5.882;2024-01-30T01:09:02;18.38;;;12.50;;
68614;SDS011;55593;51.994;5.882;2024-01-30T01:11:32;14.63;;;10.98;;
68614;SDS011;55593;51.994;5.882;2024-01-30T01:14:01;18.13;;;11.25;;
68614;SDS011;55593;51.994;5.882;2024-01-30T01:16:31;17.67;;;13.00;;
68614;SDS011;55593;51.994;5.882;2024-01-30T01:19:00;16.38;;;12.75;;
68614;SDS011;55593;51.994;5.882;2024-01-30T01:21:31;19.02;;;13.82;;
68614;SDS011;55593;51.994;5.882;2024-01-30T01:24:01;19.73;;;14.27;;
68614;SDS011;55593;51.994;5.882;2024-01-30T01:26:30;16.08;;;11.68;;
68614;SDS011;55593;51.994;5.882;2024-01-30T01:28:59;17.73;;;12.88;;
68614;SDS011;55593;51.994;5.882;2024-01-30T01:31:30;22.45;;;13.98;;
68614;SDS011;55593;51.994;5.882;2024-01-30T01:33:59;17.58;;;13.05;;
68614;SDS011;55593;51.994;5.882;2024-01-30T01:36:31;18.50;;;14.00;;
68614;SDS011;55593;51.994;5.882;2024-01-30T01:39:00;18.83;;;12.50;;
68614;SDS011;55593;51.994;5.882;2024-01-30T01:41:29;17.50;;;13.90;;
68614;SDS011;55593;51.994;5.882;2024-01-30T01:43:59;20.08;;;14.10;;
68614;SDS011;55593;51.994;5.882;2024-01-30T01:46:30;23.63;;;12.75;;
68614;SDS011;55593;51.994;5.882;2024-01-30T01:49:02;16.30;;;12.73;;
68614;SDS011;55593;51.994;5.882;2024-01-30T01:51:34;16.25;;;12.40;;
68614;SDS011;55593;51.994;5.882;2024-01-30T01:54:06;19.33;;;13.10;;
68614;SDS011;55593;51.994;5.882;2024-01-30T01:56:36;20.38;;;12.90;;
68614;SDS011;55593;51.994;5.882;2024-01-30T01:59:06;15.68;;;12.40;;
68614;SDS011;55593;51.994;5.882;2024-01-30T02:01:36;16.02;;;11.63;;
68614;SDS011;55593;51.994;5.882;2024-01-30T02:04:06;19.85;;;13.07;;
68614;SDS011;55593;51.994;5.882;2024-01-30T02:06:38;14.88;;;11.70;;
68614;SDS011;55593;51.994;5.882;2024-01-30T02:09:07;16.27;;;12.75;;
68614;SDS011;55593;51.994;5.882;2024-01-30T02:11:37;18.80;;;13.52;;
68614;SDS011;55593;51.994;5.882;2024-01-30T02:14:06;15.80;;;11.27;;
68614;SDS011;55593;51.994;5.882;2024-01-30T02:16:35;19.15;;;13.02;;
68614;SDS011;55593;51.994;5.882;2024-01-30T02:19:05;17.02;;;12.55;;
68614;SDS011;55593;51.994;5.882;2024-01-30T02:21:36;18.63;;;12.95;;
68614;SDS011;55593;51.994;5.882;2024-01-30T02:24:06;14.85;;;11.50;;
68614;SDS011;55593;51.994;5.882;2024-01-30T02:26:35;14.32;;;11.27;;
68614;SDS011;55593;51.994;5.882;2024-01-30T02:29:04;19.85;;;13.15;;
68614;SDS011;55593;51.994;5.882;2024-01-30T02:31:33;18.25;;;13.82;;
68614;SDS011;55593;51.994;5.882;2024-01-30T02:34:02;19.85;;;13.88;;
68614;SDS011;55593;51.994;5.882;2024-01-30T02:36:32;17.73;;;12.63;;
68614;SDS011;55593;51.994;5.882;2024-01-30T02:39:03;18.48;;;12.93;;
68614;SDS011;55593;51.994;5.882;2024-01-30T02:41:33;19.92;;;12.52;;
68614;SDS011;55593;51.994;5.882;2024-01-30T02:44:02;13.50;;;10.45;;
68614;SDS011;55593;51.994;5.882;2024-01-30T02:46:31;17.98;;;12.88;;
68614;SDS011;55593;51.994;5.882;2024-01-30T02:49:00;18.08;;;12.68;;
68614;SDS011;55593;51.994;5.882;2024-01-30T02:51:30;17.05;;;12.13;;
68614;SDS011;55593;51.994;5.882;2024-01-30T02:53:59;16.50;;;12.90;;
68614;SDS011;55593;51.994;5.882;2024-01-30T02:56:31;20.45;;;13.38;;
68614;SDS011;55593;51.994;5.882;2024-01-30T02:59:00;16.83;;;12.63;;
68614;SDS011;55593;51.994;5.882;2024-01-30T03:01:29;16.75;;;12.52;;
68614;SDS011;55593;51.994;5.882;2024-01-30T03:03:58;18.00;;;11.80;;
68614;SDS011;55593;51.994;5.882;2024-01-30T03:06:27;20.92;;;12.85;;
68614;SDS011;55593;51.994;5.882;2024-01-30T03:08:56;15.95;;;12.98;;
68614;SDS011;55593;51.994;5.882;2024-01-30T03:11:25;15.30;;;12.18;;
68614;SDS011;55593;51.994;5.882;2024-01-30T03:13:57;18.33;;;13.20;;
68614;SDS011;55593;51.994;5.882;2024-01-30T03:16:27;15.57;;;12.50;;
68614;SDS011;55593;51.994;5.882;2024-01-30T03:18:56;17.50;;;13.27;;
68614;SDS011;55593;51.994;5.882;2024-01-30T03:21:26;17.42;;;11.63;;
68614;SDS011;55593;51.994;5.882;2024-01-30T03:23:56;15.35;;;11.85;;
68614;SDS011;55593;51.994;5.882;2024-01-30T03:26:25;17.65;;;11.70;;
68614;SDS011;55593;51.994;5.882;2024-01-30T03:28:54;15.77;;;12.15;;
68614;SDS011;55593;51.994;5.882;2024-01-30T03:31:26;17.92;;;13.05;;
68614;SDS011;55593;51.994;5.882;2024-01-30T03:33:55;13.35;;;10.32;;
68614;SDS011;55593;51.994;5.882;2024-01-30T03:36:24;21.65;;;14.13;;
68614;SDS011;55593;51.994;5.882;2024-01-30T03:38:53;17.55;;;13.75;;
68614;SDS011;55593;51.994;5.882;2024-01-30T03:41:22;18.35;;;12.35;;
68614;SDS011;55593;51.994;5.882;2024-01-30T03:43:51;18.23;;;12.10;;
68614;SDS011;55593;51.994;5.882;2024-01-30T03:46:20;19.75;;;12.45;;
68614;SDS011;55593;51.994;5.882;2024-01-30T03:48:52;17.63;;;13.27;;
68614;SDS011;55593;51.994;5.882;2024-01-30T03:51:21;17.92;;;13.18;;
68614;SDS011;55593;51.994;5.882;2024-01-30T03:53:51;17.77;;;13.50;;
68614;SDS011;55593;51.994;5.882;2024-01-30T03:56:20;16.80;;;12.68;;
68614;SDS011;55593;51.994;5.882;2024-01-30T03:58:51;16.85;;;12.52;;
68614;SDS011;55593;51.994;5.882;2024-01-30T04:01:20;17.13;;;12.25;;
68614;SDS011;55593;51.994;5.882;2024-01-30T04:03:51;18.20;;;12.93;;
68614;SDS011;55593;51.994;5.882;2024-01-30T04:06:20;15.95;;;11.98;;
68614;SDS011;55593;51.994;5.882;2024-01-30T04:08:50;14.57;;;11.25;;
68614;SDS011;55593;51.994;5.882;2024-01-30T04:11:19;15.80;;;11.75;;
68614;SDS011;55593;51.994;5.882;2024-01-30T04:13:48;16.25;;;12.40;;
68614;SDS011;55593;51.994;5.882;2024-01-30T04:16:20;17.52;;;13.07;;
68614;SDS011;55593;51.994;5.882;2024-01-30T04:18:52;18.15;;;12.60;;
68614;SDS011;55593;51.994;5.882;2024-01-30T04:21:21;19.33;;;13.93;;
68614;SDS011;55593;51.994;5.882;2024-01-30T04:23:50;18.25;;;12.10;;
68614;SDS011;55593;51.994;5.882;2024-01-30T04:26:20;20.02;;;12.73;;
68614;SDS011;55593;51.994;5.882;2024-01-30T04:28:49;16.35;;;11.15;;
68614;SDS011;55593;51.994;5.882;2024-01-30T04:31:18;17.63;;;13.52;;
68614;SDS011;55593;51.994;5.882;2024-01-30T04:33:47;20.98;;;13.93;;
68614;SDS011;55593;51.994;5.882;2024-01-30T04:36:19;15.25;;;11.63;;
68614;SDS011;55593;51.994;5.882;2024-01-30T04:38:48;16.60;;;12.35;;
68614;SDS011;55593;51.994;5.882;2024-01-30T04:41:17;17.50;;;13.50;;
68614;SDS011;55593;51.994;5.882;2024-01-30T04:43:46;18.63;;;13.07;;
68614;SDS011;55593;51.994;5.882;2024-01-30T04:46:15;16.52;;;12.50;;
68614;SDS011;55593;51.994;5.882;2024-01-30T04:48:44;16.40;;;13.18;;
68614;SDS011;55593;51.994;5.882;2024-01-30T04:51:14;14.32;;;10.93;;
68614;SDS011;55593;51.994;5.882;2024-01-30T04:53:45;15.90;;;11.77;;
68614;SDS011;55593;51.994;5.882;2024-01-30T04:56:14;18.73;;;12.40;;
68614;SDS011;55593;51.994;5.882;2024-01-30T04:58:44;21.10;;;13.90;;
68614;SDS011;55593;51.994;5.882;2024-01-30T05:01:14;17.33;;;13.60;;
68614;SDS011;55593;51.994;5.882;2024-01-30T05:03:43;20.38;;;14.48;;
68614;SDS011;55593;51.994;5.882;2024-01-30T05:06:13;16.77;;;11.95;;
68614;SDS011;55593;51.994;5.882;2024-01-30T05:08:42;18.83;;;12.07;;
68614;SDS011;55593;51.994;5.882;2024-01-30T05:11:13;20.48;;;13.65;;
68614;SDS011;55593;51.994;5.882;2024-01-30T05:13:43;16.40;;;12.70;;
68614;SDS011;55593;51.994;5.882;2024-01-30T05:16:12;17.45;;;14.10;;
68614;SDS011;55593;51.994;5.882;2024-01-30T05:18:41;16.98;;;13.50;;
68614;SDS011;55593;51.994;5.882;2024-01-30T05:21:11;17.65;;;12.32;;
68614;SDS011;55593;51.994;5.882;2024-01-30T05:23:40;19.13;;;12.70;;
68614;SDS011;55593;51.994;5.882;2024-01-30T05:26:09;15.98;;;11.40;;
68614;SDS011;55593;51.994;5.882;2024-01-30T05:28:41;15.20;;;10.23;;
68614;SDS011;55593;51.994;5.882;2024-01-30T05:31:10;17.33;;;12.00;;
68614;SDS011;55593;51.994;5.882;2024-01-30T05:33:39;16.45;;;12.18;;
68614;SDS011;55593;51.994;5.882;2024-01-30T05:36:11;18.98;;;12.30;;
68614;SDS011;55593;51.994;5.882;2024-01-30T05:38:40;16.83;;;10.93;;
68614;SDS011;55593;51.994;5.882;2024-01-30T05:41:09;19.27;;;12.60;;
68614;SDS011;55593;51.994;5.882;2024-01-30T05:43:41;18.05;;;12.55;;
68614;SDS011;55593;51.994;5.882;2024-01-30T05:46:11;18.95;;;12.90;;
68614;SDS011;55593;51.994;5.882;2024-01-30T05:48:40;20.67;;;12.60;;
68614;SDS011;55593;51.994;5.882;2024-01-30T05:51:09;18.25;;;12.70;;
68614;SDS011;55593;51.994;5.882;2024-01-30T05:53:38;18.38;;;12.00;;
68614;SDS011;55593;51.994;5.882;2024-01-30T05:56:07;18.20;;;12.48;;
68614;SDS011;55593;51.994;5.882;2024-01-30T05:58:36;18.83;;;12.82;;
68614;SDS011;55593;51.994;5.882;2024-01-30T06:01:09;18.60;;;12.32;;
68614;SDS011;55593;51.994;5.882;2024-01-30T06:03:38;16.42;;;12.43;;
68614;SDS011;55593;51.994;5.882;2024-01-30T06:06:09;19.63;;;12.50;;
68614;SDS011;55593;51.994;5.882;2024-01-30T06:08:38;21.27;;;13.20;;
68614;SDS011;55593;51.994;5.882;2024-01-30T06:11:09;18.08;;;11.75;;
68614;SDS011;55593;51.994;5.882;2024-01-30T06:13:39;18.88;;;12.38;;
68614;SDS011;55593;51.994;5.882;2024-01-30T06:16:11;19.15;;;12.75;;
68614;SDS011;55593;51.994;5.882;2024-01-30T06:18:40;15.80;;;11.35;;
68614;SDS011;55593;51.994;5.882;2024-01-30T06:21:09;17.80;;;12.05;;
68614;SDS011;55593;51.994;5.882;2024-01-30T06:23:38;17.55;;;12.60;;
68614;SDS011;55593;51.994;5.882;2024-01-30T06:26:08;15.15;;;12.00;;
68614;SDS011;55593;51.994;5.882;2024-01-30T06:28:37;18.02;;;12.25;;
68614;SDS011;55593;51.994;5.882;2024-01-30T06:31:06;19.20;;;11.68;;
68614;SDS011;55593;51.994;5.882;2024-01-30T06:33:37;16.52;;;12.05;;
68614;SDS011;55593;51.994;5.882;2024-01-30T06:36:08;17.85;;;13.18;;
68614;SDS011;55593;51.994;5.882;2024-01-30T06:38:37;13.20;;;10.75;;
68614;SDS011;55593;51.994;5.882;2024-01-30T06:41:06;17.17;;;11.63;;
68614;SDS011;55593;51.994;5.882;2024-01-30T06:43:35;17.02;;;12.90;;
68614;SDS011;55593;51.994;5.882;2024-01-30T06:46:04;23.63;;;13.02;;
68614;SDS011;55593;51.994;5.882;2024-01-30T06:48:33;18.27;;;11.75;;
68614;SDS011;55593;51.994;5.882;2024-01-30T06:51:08;13.13;;;10.70;;
68614;SDS011;55593;51.994;5.882;2024-01-30T06:53:38;15.02;;;11.43;;
68614;SDS011;55593;51.994;5.882;2024-01-30T06:56:07;14.43;;;11.50;;
68614;SDS011;55593;51.994;5.882;2024-01-30T06:58:36;16.05;;;11.90;;
68614;SDS011;55593;51.994;5.882;2024-01-30T07:01:06;18.42;;;10.88;;
68614;SDS011;55593;51.994;5.882;2024-01-30T07:03:35;17.42;;;11.45;;
68614;SDS011;55593;51.994;5.882;2024-01-30T07:06:05;17.25;;;11.30;;
68614;SDS011;55593;51.994;5.882;2024-01-30T07:08:36;17.58;;;11.27;;
68614;SDS011;55593;51.994;5.882;2024-01-30T07:11:06;13.98;;;11.18;;
68614;SDS011;55593;51.994;5.882;2024-01-30T07:13:35;14.80;;;10.85;;
68614;SDS011;55593;51.994;5.882;2024-01-30T07:16:04;54.40;;;32.42;;
68614;SDS011;55593;51.994;5.882;2024-01-30T07:18:34;31.67;;;20.05;;
68614;SDS011;55593;51.994;5.882;2024-01-30T07:21:03;19.80;;;14.15;;
68614;SDS011;55593;51.994;5.882;2024-01-30T07:23:32;20.73;;;13.68;;
68614;SDS011;55593;51.994;5.882;2024-01-30T07:26:07;16.90;;;12.20;;
68614;SDS011;55593;51.994;5.882;2024-01-30T07:28:36;15.50;;;10.63;;
68614;SDS011;55593;51.994;5.882;2024-01-30T07:31:05;17.80;;;10.85;;
68614;SDS011;55593;51.994;5.882;2024-01-30T07:33:35;16.60;;;10.73;;
68614;SDS011;55593;51.994;5.882;2024-01-30T07:36:04;15.27;;;10.35;;
68614;SDS011;55593;51.994;5.882;2024-01-30T07:38:34;16.80;;;9.95;;
68614;SDS011;55593;51.994;5.882;2024-01-30T07:41:03;14.50;;;10.27;;
68614;SDS011;55593;51.994;5.882;2024-01-30T07:43:35;19.40;;;10.50;;
68614;SDS011;55593;51.994;5.882;2024-01-30T07:46:05;16.95;;;11.85;;
68614;SDS011;55593;51.994;5.882;2024-01-30T07:48:34;20.23;;;11.15;;
68614;SDS011;55593;51.994;5.882;2024-01-30T07:51:03;13.85;;;10.95;;
68614;SDS011;55593;51.994;5.882;2024-01-30T07:53:32;16.50;;;10.40;;
68614;SDS011;55593;51.994;5.882;2024-01-30T07:56:01;16.13;;;9.95;;
68614;SDS011;55593;51.994;5.882;2024-01-30T07:58:31;17.70;;;10.88;;
68614;SDS011;55593;51.994;5.882;2024-01-30T08:01:03;18.88;;;10.25;;
68614;SDS011;55593;51.994;5.882;2024-01-30T08:03:32;16.52;;;10.30;;
68614;SDS011;55593;51.994;5.882;2024-01-30T08:06:02;16.60;;;9.88;;
68614;SDS011;55593;51.994;5.882;2024-01-30T08:08:32;19.38;;;10.88;;
68614;SDS011;55593;51.994;5.882;2024-01-30T08:11:01;16.50;;;10.30;;
68614;SDS011;55593;51.994;5.882;2024-01-30T08:13:30;17.73;;;10.85;;
68614;SDS011;55593;51.994;5.882;2024-01-30T08:16:02;13.82;;;9.90;;
68614;SDS011;55593;51.994;5.882;2024-01-30T08:18:32;17.38;;;11.02;;
68614;SDS011;55593;51.994;5.882;2024-01-30T08:21:02;18.73;;;10.70;;
68614;SDS011;55593;51.994;5.882;2024-01-30T08:23:31;15.18;;;10.32;;
68614;SDS011;55593;51.994;5.882;2024-01-30T08:26:00;14.13;;;10.02;;
68614;SDS011;55593;51.994;5.882;2024-01-30T08:28:30;15.27;;;9.43;;
68614;SDS011;55593;51.994;5.882;2024-01-30T08:30:59;13.75;;;9.48;;
68614;SDS011;55593;51.994;5.882;2024-01-30T08:33:31;13.98;;;9.63;;
68614;SDS011;55593;51.994;5.882;2024-01-30T08:36:00;14.50;;;9.98;;
68614;SDS011;55593;51.994;5.882;2024-01-30T08:38:29;19.50;;;11.38;;
68614;SDS011;55593;51.994;5.882;2024-01-30T08:40:58;13.77;;;9.90;;
68614;SDS011;55593;51.994;5.882;2024-01-30T08:43:28;18.75;;;10.43;;
68614;SDS011;55593;51.994;5.882;2024-01-30T08:45:58;12.65;;;9.20;;
68614;SDS011;55593;51.994;5.882;2024-01-30T08:48:27;15.82;;;10.30;;
68614;SDS011;55593;51.994;5.882;2024-01-30T08:50:59;15.55;;;10.00;;
68614;SDS011;55593;51.994;5.882;2024-01-30T08:53:28;14.63;;;10.25;;
68614;SDS011;55593;51.994;5.882;2024-01-30T08:55:58;20.85;;;11.43;;
68614;SDS011;55593;51.994;5.882;2024-01-30T08:58:27;15.80;;;10.20;;
68614;SDS011;55593;51.994;5.882;2024-01-30T09:00:56;15.50;;;10.90;;
68614;SDS011;55593;51.994;5.882;2024-01-30T09:03:25;18.30;;;11.60;;
68614;SDS011;55593;51.994;5.882;2024-01-30T09:05:54;16.70;;;11.10;;
68614;SDS011;55593;51.994;5.882;2024-01-30T09:08:26;13.23;;;10.30;;
68614;SDS011;55593;51.994;5.882;2024-01-30T09:10:55;15.63;;;10.57;;
68614;SDS011;55593;51.994;5.882;2024-01-30T09:13:25;16.50;;;11.38;;
68614;SDS011;55593;51.994;5.882;2024-01-30T09:15:54;15.77;;;10.50;;
68614;SDS011;55593;51.994;5.882;2024-01-30T09:18:23;17.23;;;11.23;;
68614;SDS011;55593;51.994;5.882;2024-01-30T09:20:52;18.25;;;11.32;;
68614;SDS011;55593;51.994;5.882;2024-01-30T09:23:21;13.77;;;10.40;;
68614;SDS011;55593;51.994;5.882;2024-01-30T09:25:53;14.85;;;10.95;;
68614;SDS011;55593;51.994;5.882;2024-01-30T09:28:22;17.98;;;11.23;;
68614;SDS011;55593;51.994;5.882;2024-01-30T09:30:55;15.38;;;11.52;;
68614;SDS011;55593;51.994;5.882;2024-01-30T09:33:24;14.27;;;11.10;;
68614;SDS011;55593;51.994;5.882;2024-01-30T09:35:53;14.80;;;10.85;;
68614;SDS011;55593;51.994;5.882;2024-01-30T09:38:22;21.38;;;10.07;;
68614;SDS011;55593;51.994;5.882;2024-01-30T09:40:54;14.85;;;10.90;;
68614;SDS011;55593;51.994;5.882;2024-01-30T09:43:24;20.60;;;11.50;;
68614;SDS011;55593;51.994;5.882;2024-01-30T09:45:54;16.13;;;11.63;;
68614;SDS011;55593;51.994;5.882;2024-01-30T09:48:24;17.80;;;11.10;;
68614;SDS011;55593;51.994;5.882;2024-01-30T09:50:54;16.80;;;10.65;;
68614;SDS011;55593;51.994;5.882;2024-01-30T09:53:24;18.15;;;11.30;;
68614;SDS011;55593;51.994;5.882;2024-01-30T09:55:56;14.70;;;12.00;;
68614;SDS011;55593;51.994;5.882;2024-01-30T09:58:26;13.90;;;10.65;;
68614;SDS011;55593;51.994;5.882;2024-01-30T10:00:55;19.60;;;12.00;;
68614;SDS011;55593;51.994;5.882;2024-01-30T10:03:25;17.38;;;11.50;;
68614;SDS011;55593;51.994;5.882;2024-01-30T10:05:54;17.48;;;11.88;;
68614;SDS011;55593;51.994;5.882;2024-01-30T10:08:23;18.40;;;11.48;;
68614;SDS011;55593;51.994;5.882;2024-01-30T10:10:55;15.93;;;10.68;;
68614;SDS011;55593;51.994;5.882;2024-01-30T10:13:25;16.83;;;11.43;;
68614;SDS011;55593;51.994;5.882;2024-01-30T10:15:54;18.45;;;11.25;;
68614;SDS011;55593;51.994;5.882;2024-01-30T10:18:24;21.30;;;12.18;;
68614;SDS011;55593;51.994;5.882;2024-01-30T10:20:53;15.80;;;12.10;;
68614;SDS011;55593;51.994;5.882;2024-01-30T10:23:22;21.38;;;12.18;;
68614;SDS011;55593;51.994;5.882;2024-01-30T10:25:51;24.80;;;13.40;;
68614;SDS011;55593;51.994;5.882;2024-01-30T10:28:26;17.73;;;11.30;;
68614;SDS011;55593;51.994;5.882;2024-01-30T10:30:59;17.02;;;11.80;;
68614;SDS011;55593;51.994;5.882;2024-01-30T10:33:29;18.42;;;10.85;;
68614;SDS011;55593;51.994;5.882;2024-01-30T10:36:00;19.48;;;12.23;;
68614;SDS011;55593;51.994;5.882;2024-01-30T10:38:31;16.98;;;11.70;;
68614;SDS011;55593;51.994;5.882;2024-01-30T10:41:01;24.13;;;13.02;;
68614;SDS011;55593;51.994;5.882;2024-01-30T10:43:35;22.58;;;11.65;;
68614;SDS011;55593;51.994;5.882;2024-01-30T10:46:06;21.55;;;12.60;;
68614;SDS011;55593;51.994;5.882;2024-01-30T10:48:41;18.65;;;11.52;;
68614;SDS011;55593;51.994;5.882;2024-01-30T10:51:11;20.58;;;11.27;;
68614;SDS011;55593;51.994;5.882;2024-01-30T10:53:42;20.52;;;11.23;;
68614;SDS011;55593;51.994;5.882;2024-01-30T10:56:14;15.68;;;11.48;;
68614;SDS011;55593;51.994;5.882;2024-01-30T10:58:47;15.30;;;10.65;;
68614;SDS011;55593;51.994;5.882;2024-01-30T11:01:17;19.15;;;11.10;;
68614;SDS011;55593;51.994;5.882;2024-01-30T11:03:49;18.58;;;10.63;;
68614;SDS011;55593;51.994;5.882;2024-01-30T11:06:18;17.13;;;11.48;;
68614;SDS011;55593;51.994;5.882;2024-01-30T11:08:59;18.83;;;12.27;;
68614;SDS011;55593;51.994;5.882;2024-01-30T11:11:29;18.85;;;12.05;;
68614;SDS011;55593;51.994;5.882;2024-01-30T11:14:03;21.98;;;12.75;;
68614;SDS011;55593;51.994;5.882;2024-01-30T11:16:32;18.98;;;13.73;;
68614;SDS011;55593;51.994;5.882;2024-01-30T11:19:01;22.10;;;14.95;;
68614;SDS011;55593;51.994;5.882;2024-01-30T11:21:30;29.60;;;16.33;;
68614;SDS011;55593;51.994;5.882;2024-01-30T11:24:00;22.58;;;15.30;;
68614;SDS011;55593;51.994;5.882;2024-01-30T11:26:32;28.70;;;15.90;;
68614;SDS011;55593;51.994;5.882;2024-01-30T11:29:06;27.65;;;16.23;;
68614;SDS011;55593;51.994;5.882;2024-01-30T11:31:36;27.63;;;17.85;;
68614;SDS011;55593;51.994;5.882;2024-01-30T11:34:05;22.33;;;15.18;;
68614;SDS011;55593;51.994;5.882;2024-01-30T11:36:34;30.45;;;16.52;;
68614;SDS011;55593;51.994;5.882;2024-01-30T11:39:04;20.50;;;13.30;;
68614;SDS011;55593;51.994;5.882;2024-01-30T11:41:34;20.90;;;14.15;;
68614;SDS011;55593;51.994;5.882;2024-01-30T11:44:08;22.42;;;12.95;;
68614;SDS011;55593;51.994;5.882;2024-01-30T11:46:37;17.67;;;10.85;;
68614;SDS011;55593;51.994;5.882;2024-01-30T11:49:06;16.02;;;11.48;;
68614;SDS011;55593;51.994;5.882;2024-01-30T11:51:35;16.20;;;10.68;;
68614;SDS011;55593;51.994;5.882;2024-01-30T11:54:04;20.13;;;11.35;;
68614;SDS011;55593;51.994;5.882;2024-01-30T11:56:34;17.77;;;11.25;;
68614;SDS011;55593;51.994;5.882;2024-01-30T11:59:03;15.57;;;10.32;;
68614;SDS011;55593;51.994;5.882;2024-01-30T12:01:34;16.58;;;11.10;;
68614;SDS011;55593;51.994;5.882;2024-01-30T12:04:04;16.08;;;10.23;;
68614;SDS011;55593;51.994;5.882;2024-01-30T12:06:35;15.40;;;10.15;;
68614;SDS011;55593;51.994;5.882;2024-01-30T12:09:04;15.15;;;10.25;;
68614;SDS011;55593;51.994;5.882;2024-01-30T12:11:43;20.40;;;10.65;;
68614;SDS011;55593;51.994;5.882;2024-01-30T12:14:12;19.85;;;9.57;;
68614;SDS011;55593;51.994;5.882;2024-01-30T12:16:47;15.95;;;10.15;;
68614;SDS011;55593;51.994;5.882;2024-01-30T12:19:23;14.95;;;10.05;;
68614;SDS011;55593;51.994;5.882;2024-01-30T12:21:55;18.48;;;10.25;;
68614;SDS011;55593;51.994;5.882;2024-01-30T12:24:25;24.65;;;9.90;;
68614;SDS011;55593;51.994;5.882;2024-01-30T12:26:56;17.60;;;9.57;;
68614;SDS011;55593;51.994;5.882;2024-01-30T12:29:26;13.18;;;9.55;;
68614;SDS011;55593;51.994;5.882;2024-01-30T12:31:57;18.48;;;8.68;;
68614;SDS011;55593;51.994;5.882;2024-01-30T12:34:27;17.73;;;9.13;;
68614;SDS011;55593;51.994;5.882;2024-01-30T12:36:56;13.45;;;7.07;;
68614;SDS011;55593;51.994;5.882;2024-01-30T12:39:25;17.42;;;7.32;;
68614;SDS011;55593;51.994;5.882;2024-01-30T12:41:54;14.68;;;6.18;;
68614;SDS011;55593;51.994;5.882;2024-01-30T12:44:23;13.48;;;5.03;;
68614;SDS011;55593;51.994;5.882;2024-01-30T12:46:52;9.90;;;4.43;;
68614;SDS011;55593;51.994;5.882;2024-01-30T12:49:26;13.77;;;3.80;;
68614;SDS011;55593;51.994;5.882;2024-01-30T12:51:55;11.55;;;3.97;;
68614;SDS011;55593;51.994;5.882;2024-01-30T12:54:24;13.88;;;3.83;;
68614;SDS011;55593;51.994;5.882;2024-01-30T12:56:53;9.93;;;3.45;;
68614;SDS011;55593;51.994;5.882;2024-01-30T12:59:22;9.13;;;3.08;;
68614;SDS011;55593;51.994;5.882;2024-01-30T13:01:52;8.95;;;2.85;;
68614;SDS011;55593;51.994;5.882;2024-01-30T13:04:21;11.13;;;3.03;;
68614;SDS011;55593;51.994;5.882;2024-01-30T13:06:53;9.60;;;2.55;;
68614;SDS011;55593;51.994;5.882;2024-01-30T13:09:23;7.38;;;2.20;;
68614;SDS011;55593;51.994;5.882;2024-01-30T13:11:52;9.05;;;2.45;;
68614;SDS011;55593;51.994;5.882;2024-01-30T13:14:21;5.95;;;2.20;;
68614;SDS011;55593;51.994;5.882;2024-01-30T13:16:50;8.20;;;2.28;;
68614;SDS011;55593;51.994;5.882;2024-01-30T13:19:20;10.18;;;2.58;;
68614;SDS011;55593;51.994;5.882;2024-01-30T13:21:49;10.73;;;2.13;;
68614;SDS011;55593;51.994;5.882;2024-01-30T13:24:20;8.60;;;2.00;;
68614;SDS011;55593;51.994;5.882;2024-01-30T13:26:50;8.68;;;2.15;;
68614;SDS011;55593;51.994;5.882;2024-01-30T13:29:19;4.30;;;1.52;;
68614;SDS011;55593;51.994;5.882;2024-01-30T13:31:48;5.80;;;1.50;;
68614;SDS011;55593;51.994;5.882;2024-01-30T13:34:17;3.55;;;1.55;;
68614;SDS011;55593;51.994;5.882;2024-01-30T13:36:46;5.68;;;1.70;;
68614;SDS011;55593;51.994;5.882;2024-01-30T13:39:15;4.50;;;1.55;;
68614;SDS011;55593;51.994;5.882;2024-01-30T13:41:47;3.10;;;1.50;;
68614;SDS011;55593;51.994;5.882;2024-01-30T13:44:16;4.35;;;1.55;;
68614;SDS011;55593;51.994;5.882;2024-01-30T13:46:46;7.22;;;2.42;;
68614;SDS011;55593;51.994;5.882;2024-01-30T13:49:16;13.68;;;3.60;;
68614;SDS011;55593;51.994;5.882;2024-01-30T13:51:45;9.07;;;4.13;;
68614;SDS011;55593;51.994;5.882;2024-01-30T13:54:14;11.60;;;4.32;;
68614;SDS011;55593;51.994;5.882;2024-01-30T13:56:44;13.38;;;3.92;;
68614;SDS011;55593;51.994;5.882;2024-01-30T13:59:15;12.55;;;4.85;;
68614;SDS011;55593;51.994;5.882;2024-01-30T14:01:49;9.80;;;4.18;;
68614;SDS011;55593;51.994;5.882;2024-01-30T14:04:18;18.05;;;4.97;;
68614;SDS011;55593;51.994;5.882;2024-01-30T14:06:47;13.02;;;5.88;;
68614;SDS011;55593;51.994;5.882;2024-01-30T14:09:17;9.15;;;4.50;;
68614;SDS011;55593;51.994;5.882;2024-01-30T14:11:49;16.63;;;6.00;;
68614;SDS011;55593;51.994;5.882;2024-01-30T14:14:18;14.90;;;5.38;;
68614;SDS011;55593;51.994;5.882;2024-01-30T14:16:47;10.68;;;5.10;;
68614;SDS011;55593;51.994;5.882;2024-01-30T14:19:16;10.70;;;5.72;;
68614;SDS011;55593;51.994;5.882;2024-01-30T14:21:46;11.55;;;5.68;;
68614;SDS011;55593;51.994;5.882;2024-01-30T14:24:15;19.90;;;5.68;;
68614;SDS011;55593;51.994;5.882;2024-01-30T14:26:44;11.70;;;4.93;;
68614;SDS011;55593;51.994;5.882;2024-01-30T14:29:16;9.20;;;5.22;;
68614;SDS011;55593;51.994;5.882;2024-01-30T14:31:45;11.23;;;5.15;;
68614;SDS011;55593;51.994;5.882;2024-01-30T14:34:14;14.43;;;6.18;;
68614;SDS011;55593;51.994;5.882;2024-01-30T14:36:44;12.95;;;4.93;;
68614;SDS011;55593;51.994;5.882;2024-01-30T14:39:13;16.23;;;7.15;;
68614;SDS011;55593;51.994;5.882;2024-01-30T14:41:42;12.15;;;5.22;;